createdAt,value
2018-08-20T00:02:06.731Z,69.10
2018-08-20T00:04:40.633Z,69.20
2018-08-20T00:07:09.187Z,69.20
2018-08-20T00:09:42.997Z,69.30
2018-08-20T00:12:11.508Z,69.30
2018-08-20T00:14:40.003Z,69.40
2018-08-20T00:17:08.524Z,69.40
2018-08-20T00:19:39.184Z,69.50
2018-08-20T00:22:07.717Z,69.60
2018-08-20T00:24:36.313Z,69.60
2018-08-20T00:27:04.864Z,69.70
2018-08-20T00:29:37.056Z,69.70
2018-08-20T00:32:05.651Z,69.70
2018-08-20T00:34:34.149Z,69.80
2018-08-20T00:37:02.881Z,69.80
2018-08-20T00:39:31.513Z,69.80
2018-08-20T00:41:59.998Z,69.90
2018-08-20T00:44:28.460Z,69.90
2018-08-20T00:46:56.888Z,70.60
2018-08-20T00:52:20.030Z,69.90
2018-08-20T00:54:48.570Z,69.90
2018-08-20T00:57:17.103Z,70.70
2018-08-20T00:59:45.609Z,70.00
2018-08-20T01:02:14.117Z,70.10
2018-08-20T01:04:42.841Z,70.10
2018-08-20T01:07:11.276Z,70.20
2018-08-20T01:09:39.836Z,70.20
2018-08-20T01:12:08.585Z,70.20
2018-08-20T01:14:37.113Z,70.20
2018-08-20T01:17:05.630Z,70.30
2018-08-20T01:22:41.296Z,70.40
2018-08-20T01:25:10.132Z,70.40
2018-08-20T01:27:38.753Z,71.10
2018-08-20T01:30:07.350Z,71.00
2018-08-20T01:32:36.117Z,70.50
2018-08-20T01:35:18.763Z,70.50
2018-08-20T01:37:47.660Z,70.60
2018-08-20T01:40:16.298Z,70.70
2018-08-20T01:42:44.774Z,70.70
2018-08-20T01:45:13.252Z,70.70
2018-08-20T01:47:42.023Z,70.60
2018-08-20T01:50:10.564Z,70.80
2018-08-20T01:52:39.041Z,70.80
2018-08-20T01:55:07.650Z,70.90
2018-08-20T01:57:36.373Z,70.90
2018-08-20T02:00:06.129Z,71.00
2018-08-20T02:02:34.796Z,70.90
2018-08-20T02:05:03.477Z,70.90
2018-08-20T02:07:32.291Z,71.00
2018-08-20T02:10:00.845Z,71.00
2018-08-20T02:12:30.541Z,71.00
2018-08-20T02:14:59.111Z,71.20
2018-08-20T02:17:27.629Z,71.30
2018-08-20T02:19:56.156Z,71.40
2018-08-20T02:22:25.729Z,71.40
2018-08-20T02:24:54.380Z,71.50
2018-08-20T02:27:22.965Z,71.60
2018-08-20T02:29:51.459Z,71.60
2018-08-20T02:32:19.966Z,71.70
2018-08-20T02:34:48.632Z,71.80
2018-08-20T02:37:17.217Z,71.90
2018-08-20T02:39:45.761Z,71.80
2018-08-20T02:42:14.325Z,71.90
2018-08-20T02:44:42.855Z,71.90
2018-08-20T02:47:11.586Z,72.10
2018-08-20T02:49:42.550Z,72.00
2018-08-20T02:52:11.242Z,72.10
2018-08-20T02:54:39.800Z,72.00
2018-08-20T02:57:08.492Z,72.20
2018-08-20T03:02:27.637Z,72.40
2018-08-20T03:04:56.325Z,72.60
2018-08-20T03:07:24.873Z,72.60
2018-08-20T03:09:55.781Z,72.70
2018-08-20T03:12:24.314Z,72.60
2018-08-20T03:14:53.042Z,72.60
2018-08-20T03:17:21.555Z,72.60
2018-08-20T03:19:50.095Z,72.60
2018-08-20T03:22:18.670Z,72.60
2018-08-20T03:24:48.400Z,72.80
2018-08-20T03:27:16.931Z,72.90
2018-08-20T03:29:45.496Z,72.80
2018-08-20T03:32:14.260Z,73.20
2018-08-20T03:34:42.818Z,72.90
2018-08-20T03:37:16.240Z,73.00
2018-08-20T03:39:44.798Z,73.10
2018-08-20T03:42:13.405Z,73.10
2018-08-20T03:44:41.982Z,73.30
2018-08-20T03:47:10.535Z,73.20
2018-08-20T03:49:39.178Z,73.20
2018-08-20T03:52:08.243Z,73.40
2018-08-20T03:54:36.863Z,73.30
2018-08-20T03:57:06.195Z,73.40
2018-08-20T03:59:36.406Z,73.40
2018-08-20T04:02:06.265Z,73.50
2018-08-20T04:04:40.799Z,73.40
2018-08-20T04:07:09.370Z,73.50
2018-08-20T04:09:38.485Z,73.70
2018-08-20T04:12:07.186Z,73.70
2018-08-20T04:14:35.773Z,73.70
2018-08-20T04:17:04.466Z,73.70
2018-08-20T04:22:28.827Z,73.90
2018-08-20T04:25:04.390Z,73.90
2018-08-20T04:27:33.128Z,73.90
2018-08-20T04:30:01.693Z,74.10
2018-08-20T04:32:30.181Z,74.30
2018-08-20T04:52:02.991Z,74.50
2018-08-20T04:54:31.552Z,74.50
2018-08-20T04:57:00.448Z,74.50
2018-08-20T04:59:32.803Z,74.50
2018-08-20T05:02:18.889Z,74.50
2018-08-20T05:04:47.413Z,74.60
2018-08-20T05:07:16.031Z,74.60
2018-08-20T05:09:44.481Z,74.70
2018-08-20T05:12:13.116Z,74.60
2018-08-20T05:14:41.573Z,74.70
2018-08-20T05:17:15.164Z,75.00
2018-08-20T05:19:43.662Z,74.90
2018-08-20T05:22:12.241Z,74.90
2018-08-20T05:24:40.790Z,74.80
2018-08-20T05:27:09.336Z,75.00
2018-08-20T05:29:37.898Z,75.20
2018-08-20T05:32:06.793Z,75.10
2018-08-20T05:34:35.554Z,75.20
2018-08-20T05:39:54.576Z,75.30
2018-08-20T05:48:10.664Z,75.30
2018-08-20T05:50:43.429Z,75.30
2018-08-20T05:53:20.458Z,75.30
2018-08-20T05:55:56.916Z,75.40
2018-08-20T05:58:28.103Z,75.30
2018-08-20T06:01:00.090Z,75.30
2018-08-20T06:03:35.598Z,75.30
2018-08-20T06:06:09.298Z,75.30
2018-08-20T06:08:39.456Z,75.30
2018-08-20T06:11:14.869Z,75.30
2018-08-20T06:13:46.821Z,75.30
2018-08-20T06:16:17.417Z,75.20
2018-08-20T06:18:49.403Z,75.30
2018-08-20T06:21:23.700Z,75.40
2018-08-20T06:23:54.346Z,75.60
2018-08-20T06:26:27.605Z,75.60
2018-08-20T06:29:02.776Z,75.60
2018-08-20T06:31:33.813Z,75.60
2018-08-20T06:34:11.863Z,75.60
2018-08-20T06:36:50.187Z,75.60
2018-08-20T06:39:22.627Z,75.60
2018-08-20T06:42:02.688Z,75.60
2018-08-20T06:44:31.531Z,75.70
2018-08-20T06:47:02.432Z,75.60
2018-08-20T06:49:30.996Z,75.60
2018-08-20T06:51:59.548Z,75.70
2018-08-20T06:54:28.488Z,75.60
2018-08-20T06:56:58.385Z,76.30
2018-08-20T06:59:38.297Z,75.70
2018-08-20T07:02:20.859Z,75.70
2018-08-20T07:04:49.505Z,75.90
2018-08-20T07:07:18.514Z,76.20
2018-08-20T07:09:47.193Z,75.80
2018-08-20T07:12:22.916Z,75.90
2018-08-20T07:14:54.659Z,75.90
2018-08-20T07:17:25.198Z,76.00
2018-08-20T07:19:53.799Z,76.10
2018-08-20T07:22:23.006Z,76.10
2018-08-20T07:24:51.572Z,75.90
2018-08-20T07:27:20.311Z,76.60
2018-08-20T07:29:54.168Z,77.00
2018-08-20T07:32:30.722Z,76.30
2018-08-20T07:35:13.996Z,76.30
2018-08-20T07:37:43.895Z,76.40
2018-08-20T07:40:19.657Z,76.30
2018-08-20T07:42:50.869Z,75.90
2018-08-20T07:45:35.623Z,76.40
2018-08-20T07:48:13.230Z,76.30
2018-08-20T07:50:45.601Z,76.40
2018-08-20T07:53:15.821Z,76.50
2018-08-20T07:55:49.969Z,76.40
2018-08-20T07:58:22.541Z,76.50
2018-08-20T08:00:54.896Z,76.40
2018-08-20T08:03:33.803Z,76.50
2018-08-20T08:38:55.614Z,76.60
2018-08-20T08:41:55.054Z,76.70
2018-08-20T08:59:00.880Z,76.80
2018-08-20T09:09:22.496Z,76.80
2018-08-20T09:59:51.550Z,78.70
2018-08-20T10:02:21.096Z,78.40
2018-08-20T10:04:58.353Z,78.30
2018-08-20T10:07:27.144Z,78.60
2018-08-20T10:09:56.985Z,79.00
2018-08-20T10:12:26.443Z,78.50
2018-08-20T10:53:34.641Z,79.90
2018-08-20T10:57:15.280Z,80.40
2018-08-20T10:59:50.933Z,79.90
2018-08-20T11:02:21.731Z,79.70
2018-08-20T11:04:55.417Z,79.90
2018-08-20T11:07:31.912Z,80.10
2018-08-20T11:10:09.922Z,80.20
2018-08-20T11:12:42.779Z,80.00
2018-08-20T11:15:12.077Z,80.10
2018-08-20T11:17:44.032Z,80.20
2018-08-20T11:20:17.025Z,80.20
2018-08-20T11:22:48.465Z,80.40
2018-08-20T11:25:17.255Z,80.60
2018-08-20T11:27:48.032Z,80.50
2018-08-20T11:30:23.101Z,80.60
2018-08-20T11:33:10.652Z,80.50
2018-08-20T11:35:42.542Z,80.50
2018-08-20T11:38:13.091Z,80.90
2018-08-20T11:40:41.907Z,81.20
2018-08-20T11:43:16.188Z,80.90
2018-08-20T11:45:46.735Z,81.00
2018-08-20T11:48:43.979Z,81.10
2018-08-20T11:51:23.738Z,81.80
2018-08-20T11:53:56.021Z,80.80
2018-08-20T13:06:24.353Z,79.20
2018-08-20T13:08:54.616Z,79.00
2018-08-20T13:11:24.716Z,79.10
2018-08-20T13:19:35.808Z,79.40
2018-08-20T13:22:06.362Z,79.30
2018-08-20T13:24:37.755Z,79.10
2018-08-20T13:27:08.705Z,79.00
2018-08-20T13:29:38.924Z,79.10
2018-08-20T13:32:09.633Z,78.90
2018-08-20T13:38:21.205Z,78.80
2018-08-20T13:40:50.707Z,78.90
2018-08-20T13:43:26.446Z,78.70
2018-08-20T13:46:02.567Z,78.60
2018-08-20T15:50:35.459Z,78.50
2018-08-20T15:53:09.624Z,78.20
2018-08-20T15:55:46.841Z,78.10
2018-08-20T15:58:19.725Z,78.20
2018-08-20T16:01:01.707Z,77.80
2018-08-20T16:03:30.317Z,77.90
2018-08-20T16:05:58.797Z,78.00
2018-08-20T16:08:27.959Z,77.80
2018-08-20T16:10:56.430Z,77.90
2018-08-20T16:13:25.601Z,78.00
2018-08-20T16:15:54.631Z,77.90
2018-08-20T16:18:26.516Z,77.90
2018-08-20T16:20:55.974Z,78.00
2018-08-20T16:23:26.799Z,78.00
2018-08-20T16:25:58.350Z,77.90
2018-08-20T16:28:31.345Z,78.10
2018-08-20T16:55:34.751Z,78.20
2018-08-20T16:58:03.379Z,77.40
2018-08-20T17:00:31.939Z,77.40
2018-08-20T17:03:00.587Z,77.40
2018-08-20T17:05:43.148Z,77.40
2018-08-20T17:13:52.252Z,77.20
2018-08-20T17:16:20.978Z,77.20
2018-08-20T17:18:49.606Z,77.10
2018-08-20T17:23:57.249Z,77.30
2018-08-20T17:26:25.933Z,77.30
2018-08-20T17:48:55.559Z,77.50
2018-08-20T17:51:24.250Z,77.50
2018-08-20T17:53:54.897Z,77.40
2018-08-20T17:56:24.552Z,77.60
2018-08-20T17:58:59.822Z,77.60
2018-08-20T18:01:29.813Z,77.60
2018-08-20T18:04:02.219Z,77.60
2018-08-20T18:06:45.140Z,77.60
2018-08-20T18:09:15.037Z,77.60
2018-08-20T18:35:11.853Z,78.70
2018-08-20T18:37:51.439Z,77.90
2018-08-20T18:40:21.187Z,78.00
2018-08-20T20:44:38.495Z,78.10
2018-08-20T20:52:51.767Z,79.10
2018-08-20T20:55:22.800Z,79.10
2018-08-20T22:31:16.248Z,80.70
2018-08-20T22:34:01.410Z,81.00
2018-08-20T22:36:34.814Z,80.60
2018-08-20T22:39:11.024Z,81.50
2018-08-20T22:58:58.928Z,81.00
2018-08-20T23:01:30.876Z,81.10
2018-08-20T23:04:09.552Z,81.20
2018-08-20T23:09:33.267Z,81.40
2018-08-20T23:12:14.320Z,81.40
2018-08-20T23:14:46.327Z,81.40
2018-08-20T23:17:20.526Z,81.40
2018-08-20T23:22:25.808Z,81.40
2018-08-20T23:25:01.698Z,81.50
2018-08-20T23:27:41.622Z,81.60
2018-08-20T23:30:16.443Z,81.70
2018-08-20T23:32:46.484Z,81.60
2018-08-20T23:35:30.670Z,81.60
2018-08-20T23:38:05.870Z,81.70
2018-08-20T23:40:43.075Z,81.70
2018-08-20T23:43:13.829Z,81.70
2018-08-20T23:45:44.197Z,81.70
2018-08-20T23:48:14.274Z,81.90
2018-08-20T23:50:53.091Z,81.70
2018-08-20T23:53:28.133Z,81.90
2018-08-20T23:56:14.441Z,81.90
2018-08-20T23:58:46.027Z,81.90
